sensor_id;sensor_type;location;lat;lon;timestamp;P1;durP1;ratioP1;P2;durP2;ratioP2
30398;SDS011;17195;50.838;7.214;2024-02-28T00:01:22;80.60;;;33.70;;
30398;SDS011;17195;50.838;7.214;2024-02-28T00:03:48;74.43;;;31.38;;
30398;SDS011;17195;50.838;7.214;2024-02-28T00:06:15;73.32;;;32.58;;
30398;SDS011;17195;50.838;7.214;2024-02-28T00:08:41;75.75;;;32.40;;
30398;SDS011;17195;50.838;7.214;2024-02-28T00:11:07;81.10;;;33.92;;
30398;SDS011;17195;50.838;7.214;2024-02-28T00:13:32;74.78;;;31.65;;
30398;SDS011;17195;50.838;7.214;2024-02-28T00:15:58;82.45;;;33.92;;
30398;SDS011;17195;50.838;7.214;2024-02-28T00:18:23;86.65;;;36.28;;
30398;SDS011;17195;50.838;7.214;2024-02-28T00:20:49;84.97;;;33.22;;
30398;SDS011;17195;50.838;7.214;2024-02-28T00:23:15;81.97;;;35.17;;
30398;SDS011;17195;50.838;7.214;2024-02-28T00:25:40;77.07;;;33.75;;
30398;SDS011;17195;50.838;7.214;2024-02-28T00:28:06;81.10;;;33.38;;
30398;SDS011;17195;50.838;7.214;2024-02-28T00:30:31;83.10;;;33.33;;
30398;SDS011;17195;50.838;7.214;2024-02-28T00:32:59;73.18;;;30.98;;
30398;SDS011;17195;50.838;7.214;2024-02-28T00:35:25;89.57;;;36.88;;
30398;SDS011;17195;50.838;7.214;2024-02-28T00:37:51;83.45;;;34.88;;
30398;SDS011;17195;50.838;7.214;2024-02-28T00:40:16;83.50;;;35.75;;
30398;SDS011;17195;50.838;7.214;2024-02-28T00:42:42;77.10;;;35.22;;
30398;SDS011;17195;50.838;7.214;2024-02-28T00:45:08;82.10;;;35.10;;
30398;SDS011;17195;50.838;7.214;2024-02-28T00:47:34;86.15;;;36.28;;
30398;SDS011;17195;50.838;7.214;2024-02-28T00:50:00;86.13;;;35.03;;
30398;SDS011;17195;50.838;7.214;2024-02-28T00:52:28;87.90;;;35.03;;
30398;SDS011;17195;50.838;7.214;2024-02-28T00:54:53;84.88;;;34.17;;
30398;SDS011;17195;50.838;7.214;2024-02-28T00:57:19;86.70;;;36.67;;
30398;SDS011;17195;50.838;7.214;2024-02-28T00:59:45;93.60;;;36.10;;
30398;SDS011;17195;50.838;7.214;2024-02-28T01:02:10;89.55;;;36.78;;
30398;SDS011;17195;50.838;7.214;2024-02-28T01:04:36;85.75;;;37.60;;
30398;SDS011;17195;50.838;7.214;2024-02-28T01:07:01;84.55;;;37.35;;
30398;SDS011;17195;50.838;7.214;2024-02-28T01:09:27;86.80;;;36.88;;
30398;SDS011;17195;50.838;7.214;2024-02-28T01:11:52;90.72;;;39.33;;
30398;SDS011;17195;50.838;7.214;2024-02-28T01:14:18;91.47;;;37.67;;
30398;SDS011;17195;50.838;7.214;2024-02-28T01:16:43;101.18;;;39.25;;
30398;SDS011;17195;50.838;7.214;2024-02-28T01:19:09;90.20;;;37.67;;
30398;SDS011;17195;50.838;7.214;2024-02-28T01:21:34;88.13;;;37.15;;
30398;SDS011;17195;50.838;7.214;2024-02-28T01:24:00;92.32;;;39.78;;
30398;SDS011;17195;50.838;7.214;2024-02-28T01:26:25;93.03;;;36.78;;
30398;SDS011;17195;50.838;7.214;2024-02-28T01:28:51;90.53;;;37.13;;
30398;SDS011;17195;50.838;7.214;2024-02-28T01:31:16;90.20;;;36.50;;
30398;SDS011;17195;50.838;7.214;2024-02-28T01:33:42;88.50;;;36.33;;
30398;SDS011;17195;50.838;7.214;2024-02-28T01:36:07;91.57;;;38.00;;
30398;SDS011;17195;50.838;7.214;2024-02-28T01:38:33;81.93;;;36.58;;
30398;SDS011;17195;50.838;7.214;2024-02-28T01:40:59;83.60;;;35.15;;
30398;SDS011;17195;50.838;7.214;2024-02-28T01:43:24;84.88;;;36.83;;
30398;SDS011;17195;50.838;7.214;2024-02-28T01:45:50;88.07;;;37.03;;
30398;SDS011;17195;50.838;7.214;2024-02-28T01:48:16;85.63;;;36.63;;
30398;SDS011;17195;50.838;7.214;2024-02-28T01:50:41;79.32;;;34.70;;
30398;SDS011;17195;50.838;7.214;2024-02-28T01:53:08;83.43;;;35.55;;
30398;SDS011;17195;50.838;7.214;2024-02-28T01:55:36;83.53;;;35.55;;
30398;SDS011;17195;50.838;7.214;2024-02-28T01:58:02;81.85;;;36.58;;
30398;SDS011;17195;50.838;7.214;2024-02-28T02:00:30;81.70;;;36.50;;
30398;SDS011;17195;50.838;7.214;2024-02-28T02:02:58;80.55;;;37.70;;
30398;SDS011;17195;50.838;7.214;2024-02-28T02:05:25;77.75;;;35.83;;
30398;SDS011;17195;50.838;7.214;2024-02-28T02:07:51;83.90;;;35.58;;
30398;SDS011;17195;50.838;7.214;2024-02-28T02:10:16;83.40;;;35.38;;
30398;SDS011;17195;50.838;7.214;2024-02-28T02:12:42;84.32;;;37.20;;
30398;SDS011;17195;50.838;7.214;2024-02-28T02:15:08;77.13;;;36.00;;
30398;SDS011;17195;50.838;7.214;2024-02-28T02:17:33;79.43;;;36.47;;
30398;SDS011;17195;50.838;7.214;2024-02-28T02:19:59;76.90;;;35.10;;
30398;SDS011;17195;50.838;7.214;2024-02-28T02:22:26;79.32;;;35.38;;
30398;SDS011;17195;50.838;7.214;2024-02-28T02:24:56;70.60;;;33.90;;
30398;SDS011;17195;50.838;7.214;2024-02-28T02:27:23;84.15;;;36.50;;
30398;SDS011;17195;50.838;7.214;2024-02-28T02:29:50;82.65;;;38.00;;
30398;SDS011;17195;50.838;7.214;2024-02-28T02:32:16;74.78;;;35.85;;
30398;SDS011;17195;50.838;7.214;2024-02-28T02:34:41;82.80;;;37.67;;
30398;SDS011;17195;50.838;7.214;2024-02-28T02:37:07;77.63;;;35.30;;
30398;SDS011;17195;50.838;7.214;2024-02-28T02:39:34;80.38;;;36.42;;
30398;SDS011;17195;50.838;7.214;2024-02-28T02:41:59;82.63;;;36.85;;
30398;SDS011;17195;50.838;7.214;2024-02-28T02:44:25;86.63;;;38.58;;
30398;SDS011;17195;50.838;7.214;2024-02-28T02:46:50;81.40;;;38.13;;
30398;SDS011;17195;50.838;7.214;2024-02-28T02:49:16;91.20;;;38.92;;
30398;SDS011;17195;50.838;7.214;2024-02-28T02:51:43;85.30;;;38.58;;
30398;SDS011;17195;50.838;7.214;2024-02-28T02:54:09;80.22;;;37.72;;
30398;SDS011;17195;50.838;7.214;2024-02-28T02:56:35;80.82;;;36.63;;
30398;SDS011;17195;50.838;7.214;2024-02-28T02:59:00;81.97;;;36.97;;
30398;SDS011;17195;50.838;7.214;2024-02-28T03:01:26;82.57;;;35.08;;
30398;SDS011;17195;50.838;7.214;2024-02-28T03:03:51;79.25;;;36.42;;
30398;SDS011;17195;50.838;7.214;2024-02-28T03:06:17;79.95;;;35.88;;
30398;SDS011;17195;50.838;7.214;2024-02-28T03:08:43;85.93;;;38.20;;
30398;SDS011;17195;50.838;7.214;2024-02-28T03:11:08;83.97;;;38.75;;
30398;SDS011;17195;50.838;7.214;2024-02-28T03:13:34;86.32;;;39.75;;
30398;SDS011;17195;50.838;7.214;2024-02-28T03:16:00;87.35;;;39.78;;
30398;SDS011;17195;50.838;7.214;2024-02-28T03:18:25;85.45;;;38.28;;
30398;SDS011;17195;50.838;7.214;2024-02-28T03:20:51;80.80;;;38.90;;
30398;SDS011;17195;50.838;7.214;2024-02-28T03:23:16;83.53;;;38.63;;
30398;SDS011;17195;50.838;7.214;2024-02-28T03:25:42;79.38;;;36.63;;
30398;SDS011;17195;50.838;7.214;2024-02-28T03:28:07;82.38;;;37.80;;
30398;SDS011;17195;50.838;7.214;2024-02-28T03:30:33;80.13;;;39.10;;
30398;SDS011;17195;50.838;7.214;2024-02-28T03:32:58;82.22;;;38.80;;
30398;SDS011;17195;50.838;7.214;2024-02-28T03:35:24;84.22;;;39.33;;
30398;SDS011;17195;50.838;7.214;2024-02-28T03:37:49;83.07;;;38.65;;
30398;SDS011;17195;50.838;7.214;2024-02-28T03:40:15;79.70;;;38.10;;
30398;SDS011;17195;50.838;7.214;2024-02-28T03:42:40;84.97;;;39.08;;
30398;SDS011;17195;50.838;7.214;2024-02-28T03:45:06;84.05;;;38.60;;
30398;SDS011;17195;50.838;7.214;2024-02-28T03:47:32;86.80;;;41.13;;
30398;SDS011;17195;50.838;7.214;2024-02-28T03:49:57;84.22;;;39.40;;
30398;SDS011;17195;50.838;7.214;2024-02-28T03:52:24;83.13;;;39.13;;
30398;SDS011;17195;50.838;7.214;2024-02-28T03:54:49;93.93;;;41.22;;
30398;SDS011;17195;50.838;7.214;2024-02-28T03:57:15;89.18;;;40.63;;
30398;SDS011;17195;50.838;7.214;2024-02-28T03:59:41;85.93;;;41.38;;
30398;SDS011;17195;50.838;7.214;2024-02-28T04:02:06;90.53;;;40.72;;
30398;SDS011;17195;50.838;7.214;2024-02-28T04:04:32;81.90;;;38.20;;
30398;SDS011;17195;50.838;7.214;2024-02-28T04:06:57;89.10;;;40.75;;
30398;SDS011;17195;50.838;7.214;2024-02-28T04:09:23;83.32;;;38.90;;
30398;SDS011;17195;50.838;7.214;2024-02-28T04:11:48;83.90;;;39.30;;
30398;SDS011;17195;50.838;7.214;2024-02-28T04:14:14;84.80;;;40.38;;
30398;SDS011;17195;50.838;7.214;2024-02-28T04:16:43;87.75;;;41.13;;
30398;SDS011;17195;50.838;7.214;2024-02-28T04:19:09;82.22;;;38.80;;
30398;SDS011;17195;50.838;7.214;2024-02-28T04:21:36;80.88;;;39.10;;
30398;SDS011;17195;50.838;7.214;2024-02-28T04:24:02;80.63;;;38.83;;
30398;SDS011;17195;50.838;7.214;2024-02-28T04:26:28;79.68;;;38.20;;
30398;SDS011;17195;50.838;7.214;2024-02-28T04:28:54;90.20;;;40.58;;
30398;SDS011;17195;50.838;7.214;2024-02-28T04:31:21;83.00;;;38.63;;
30398;SDS011;17195;50.838;7.214;2024-02-28T04:33:46;82.93;;;37.53;;
30398;SDS011;17195;50.838;7.214;2024-02-28T04:36:12;80.43;;;38.15;;
30398;SDS011;17195;50.838;7.214;2024-02-28T04:38:37;82.53;;;38.08;;
30398;SDS011;17195;50.838;7.214;2024-02-28T04:41:03;80.35;;;38.20;;
30398;SDS011;17195;50.838;7.214;2024-02-28T04:43:28;77.90;;;38.22;;
30398;SDS011;17195;50.838;7.214;2024-02-28T04:45:54;81.15;;;37.88;;
30398;SDS011;17195;50.838;7.214;2024-02-28T04:48:19;85.18;;;39.42;;
30398;SDS011;17195;50.838;7.214;2024-02-28T04:50:45;84.38;;;38.38;;
30398;SDS011;17195;50.838;7.214;2024-02-28T04:53:11;88.32;;;39.42;;
30398;SDS011;17195;50.838;7.214;2024-02-28T04:55:36;88.22;;;39.05;;
30398;SDS011;17195;50.838;7.214;2024-02-28T04:58:02;82.47;;;37.80;;
30398;SDS011;17195;50.838;7.214;2024-02-28T05:00:27;76.13;;;36.53;;
30398;SDS011;17195;50.838;7.214;2024-02-28T05:02:53;86.47;;;38.20;;
30398;SDS011;17195;50.838;7.214;2024-02-28T05:05:18;84.20;;;37.60;;
30398;SDS011;17195;50.838;7.214;2024-02-28T05:07:44;76.70;;;34.95;;
30398;SDS011;17195;50.838;7.214;2024-02-28T05:10:09;78.32;;;37.13;;
30398;SDS011;17195;50.838;7.214;2024-02-28T05:12:35;81.70;;;37.38;;
30398;SDS011;17195;50.838;7.214;2024-02-28T05:15:01;86.95;;;38.30;;
30398;SDS011;17195;50.838;7.214;2024-02-28T05:17:27;87.55;;;38.92;;
30398;SDS011;17195;50.838;7.214;2024-02-28T05:19:52;89.80;;;38.65;;
30398;SDS011;17195;50.838;7.214;2024-02-28T05:22:18;90.07;;;38.88;;
30398;SDS011;17195;50.838;7.214;2024-02-28T05:24:45;86.40;;;37.80;;
30398;SDS011;17195;50.838;7.214;2024-02-28T05:27:11;78.88;;;35.58;;
30398;SDS011;17195;50.838;7.214;2024-02-28T05:29:37;77.50;;;34.47;;
30398;SDS011;17195;50.838;7.214;2024-02-28T05:32:02;81.05;;;37.15;;
30398;SDS011;17195;50.838;7.214;2024-02-28T05:34:28;80.53;;;38.15;;
30398;SDS011;17195;50.838;7.214;2024-02-28T05:36:54;79.60;;;37.13;;
30398;SDS011;17195;50.838;7.214;2024-02-28T05:39:20;75.57;;;35.53;;
30398;SDS011;17195;50.838;7.214;2024-02-28T05:41:45;73.80;;;35.90;;
30398;SDS011;17195;50.838;7.214;2024-02-28T05:44:11;72.03;;;35.08;;
30398;SDS011;17195;50.838;7.214;2024-02-28T05:46:37;75.15;;;37.10;;
30398;SDS011;17195;50.838;7.214;2024-02-28T05:49:03;74.70;;;36.50;;
30398;SDS011;17195;50.838;7.214;2024-02-28T05:51:29;79.65;;;36.50;;
30398;SDS011;17195;50.838;7.214;2024-02-28T05:53:54;75.75;;;37.80;;
30398;SDS011;17195;50.838;7.214;2024-02-28T05:56:20;78.53;;;37.72;;
30398;SDS011;17195;50.838;7.214;2024-02-28T05:58:47;81.78;;;37.85;;
30398;SDS011;17195;50.838;7.214;2024-02-28T06:01:16;75.03;;;36.20;;
30398;SDS011;17195;50.838;7.214;2024-02-28T06:03:45;77.18;;;38.00;;
30398;SDS011;17195;50.838;7.214;2024-02-28T06:06:11;71.82;;;35.70;;
30398;SDS011;17195;50.838;7.214;2024-02-28T06:08:38;76.93;;;37.33;;
30398;SDS011;17195;50.838;7.214;2024-02-28T06:11:05;82.53;;;38.13;;
30398;SDS011;17195;50.838;7.214;2024-02-28T06:13:31;76.40;;;38.05;;
30398;SDS011;17195;50.838;7.214;2024-02-28T06:15:57;76.45;;;37.03;;
30398;SDS011;17195;50.838;7.214;2024-02-28T06:18:23;74.93;;;35.67;;
30398;SDS011;17195;50.838;7.214;2024-02-28T06:20:52;80.45;;;39.75;;
30398;SDS011;17195;50.838;7.214;2024-02-28T06:23:21;82.78;;;40.92;;
30398;SDS011;17195;50.838;7.214;2024-02-28T06:25:49;106.05;;;50.35;;
30398;SDS011;17195;50.838;7.214;2024-02-28T06:28:15;94.55;;;46.05;;
30398;SDS011;17195;50.838;7.214;2024-02-28T06:30:42;83.40;;;41.10;;
30398;SDS011;17195;50.838;7.214;2024-02-28T06:33:09;88.93;;;44.28;;
30398;SDS011;17195;50.838;7.214;2024-02-28T06:35:34;81.50;;;40.38;;
30398;SDS011;17195;50.838;7.214;2024-02-28T06:38:00;74.78;;;37.50;;
30398;SDS011;17195;50.838;7.214;2024-02-28T06:40:26;75.13;;;36.42;;
30398;SDS011;17195;50.838;7.214;2024-02-28T06:42:53;73.50;;;38.28;;
30398;SDS011;17195;50.838;7.214;2024-02-28T06:45:19;72.53;;;35.85;;
30398;SDS011;17195;50.838;7.214;2024-02-28T06:47:44;76.53;;;36.83;;
30398;SDS011;17195;50.838;7.214;2024-02-28T06:50:10;78.05;;;37.75;;
30398;SDS011;17195;50.838;7.214;2024-02-28T06:52:36;70.95;;;34.78;;
30398;SDS011;17195;50.838;7.214;2024-02-28T06:55:01;75.13;;;37.90;;
30398;SDS011;17195;50.838;7.214;2024-02-28T06:57:34;71.03;;;36.20;;
30398;SDS011;17195;50.838;7.214;2024-02-28T07:00:05;75.22;;;36.25;;
30398;SDS011;17195;50.838;7.214;2024-02-28T07:02:33;80.20;;;38.95;;
30398;SDS011;17195;50.838;7.214;2024-02-28T07:04:59;74.18;;;36.90;;
30398;SDS011;17195;50.838;7.214;2024-02-28T07:07:25;78.07;;;37.75;;
30398;SDS011;17195;50.838;7.214;2024-02-28T07:09:50;78.13;;;36.78;;
30398;SDS011;17195;50.838;7.214;2024-02-28T07:12:16;71.80;;;35.13;;
30398;SDS011;17195;50.838;7.214;2024-02-28T07:14:41;76.70;;;36.65;;
30398;SDS011;17195;50.838;7.214;2024-02-28T07:17:07;71.05;;;35.85;;
30398;SDS011;17195;50.838;7.214;2024-02-28T07:19:32;72.32;;;36.85;;
30398;SDS011;17195;50.838;7.214;2024-02-28T07:21:58;72.88;;;35.97;;
30398;SDS011;17195;50.838;7.214;2024-02-28T07:24:23;68.80;;;34.50;;
30398;SDS011;17195;50.838;7.214;2024-02-28T07:26:49;67.93;;;34.90;;
30398;SDS011;17195;50.838;7.214;2024-02-28T07:29:16;70.35;;;34.88;;
30398;SDS011;17195;50.838;7.214;2024-02-28T07:31:41;69.68;;;33.58;;
30398;SDS011;17195;50.838;7.214;2024-02-28T07:34:07;74.15;;;37.92;;
30398;SDS011;17195;50.838;7.214;2024-02-28T07:36:33;71.05;;;35.53;;
30398;SDS011;17195;50.838;7.214;2024-02-28T07:38:59;71.25;;;34.35;;
30398;SDS011;17195;50.838;7.214;2024-02-28T07:41:24;75.15;;;35.85;;
30398;SDS011;17195;50.838;7.214;2024-02-28T07:43:50;87.95;;;40.92;;
30398;SDS011;17195;50.838;7.214;2024-02-28T07:46:15;78.00;;;37.28;;
30398;SDS011;17195;50.838;7.214;2024-02-28T07:48:41;68.82;;;34.90;;
30398;SDS011;17195;50.838;7.214;2024-02-28T07:51:07;73.78;;;35.25;;
30398;SDS011;17195;50.838;7.214;2024-02-28T07:53:33;70.35;;;34.70;;
30398;SDS011;17195;50.838;7.214;2024-02-28T07:55:58;75.18;;;34.72;;
30398;SDS011;17195;50.838;7.214;2024-02-28T07:58:24;75.32;;;36.67;;
30398;SDS011;17195;50.838;7.214;2024-02-28T08:00:50;71.85;;;35.58;;
30398;SDS011;17195;50.838;7.214;2024-02-28T08:03:17;71.13;;;33.53;;
30398;SDS011;17195;50.838;7.214;2024-02-28T08:05:43;67.90;;;32.95;;
30398;SDS011;17195;50.838;7.214;2024-02-28T08:08:09;70.88;;;33.90;;
30398;SDS011;17195;50.838;7.214;2024-02-28T08:10:36;65.38;;;32.92;;
30398;SDS011;17195;50.838;7.214;2024-02-28T08:13:03;72.70;;;34.05;;
30398;SDS011;17195;50.838;7.214;2024-02-28T08:15:29;69.55;;;33.95;;
30398;SDS011;17195;50.838;7.214;2024-02-28T08:17:54;73.53;;;34.80;;
30398;SDS011;17195;50.838;7.214;2024-02-28T08:20:20;70.90;;;35.17;;
30398;SDS011;17195;50.838;7.214;2024-02-28T08:22:46;68.35;;;35.47;;
30398;SDS011;17195;50.838;7.214;2024-02-28T08:25:11;72.63;;;34.75;;
30398;SDS011;17195;50.838;7.214;2024-02-28T08:27:38;65.72;;;33.42;;
30398;SDS011;17195;50.838;7.214;2024-02-28T08:30:04;66.57;;;34.53;;
30398;SDS011;17195;50.838;7.214;2024-02-28T08:32:31;62.35;;;31.83;;
30398;SDS011;17195;50.838;7.214;2024-02-28T08:34:57;67.13;;;33.17;;
30398;SDS011;17195;50.838;7.214;2024-02-28T08:37:23;63.22;;;32.42;;
30398;SDS011;17195;50.838;7.214;2024-02-28T08:39:53;69.07;;;32.75;;
30398;SDS011;17195;50.838;7.214;2024-02-28T08:42:24;66.05;;;32.70;;
30398;SDS011;17195;50.838;7.214;2024-02-28T08:44:50;61.65;;;32.50;;
30398;SDS011;17195;50.838;7.214;2024-02-28T08:47:16;66.18;;;33.40;;
30398;SDS011;17195;50.838;7.214;2024-02-28T08:49:42;65.75;;;32.05;;
30398;SDS011;17195;50.838;7.214;2024-02-28T08:52:07;68.63;;;32.88;;
30398;SDS011;17195;50.838;7.214;2024-02-28T08:54:33;67.13;;;31.67;;
30398;SDS011;17195;50.838;7.214;2024-02-28T08:56:58;65.43;;;32.10;;
30398;SDS011;17195;50.838;7.214;2024-02-28T08:59:24;79.35;;;41.42;;
30398;SDS011;17195;50.838;7.214;2024-02-28T09:01:50;67.63;;;33.92;;
30398;SDS011;17195;50.838;7.214;2024-02-28T09:04:16;67.15;;;34.15;;
30398;SDS011;17195;50.838;7.214;2024-02-28T09:06:41;65.95;;;32.03;;
30398;SDS011;17195;50.838;7.214;2024-02-28T09:09:07;62.90;;;33.60;;
30398;SDS011;17195;50.838;7.214;2024-02-28T09:11:32;62.03;;;31.67;;
30398;SDS011;17195;50.838;7.214;2024-02-28T09:13:58;62.65;;;31.92;;
30398;SDS011;17195;50.838;7.214;2024-02-28T09:16:24;69.45;;;34.30;;
30398;SDS011;17195;50.838;7.214;2024-02-28T09:18:49;60.72;;;32.28;;
30398;SDS011;17195;50.838;7.214;2024-02-28T09:21:15;62.17;;;30.98;;
30398;SDS011;17195;50.838;7.214;2024-02-28T09:23:41;64.53;;;33.03;;
30398;SDS011;17195;50.838;7.214;2024-02-28T09:26:06;61.55;;;31.52;;
30398;SDS011;17195;50.838;7.214;2024-02-28T09:28:32;59.00;;;30.60;;
30398;SDS011;17195;50.838;7.214;2024-02-28T09:30:58;57.25;;;31.42;;
30398;SDS011;17195;50.838;7.214;2024-02-28T09:33:24;60.60;;;31.92;;
30398;SDS011;17195;50.838;7.214;2024-02-28T09:35:49;59.72;;;32.08;;
30398;SDS011;17195;50.838;7.214;2024-02-28T09:38:15;56.65;;;30.08;;
30398;SDS011;17195;50.838;7.214;2024-02-28T09:40:40;58.00;;;30.40;;
30398;SDS011;17195;50.838;7.214;2024-02-28T09:43:18;56.78;;;30.60;;
30398;SDS011;17195;50.838;7.214;2024-02-28T09:45:54;55.15;;;31.45;;
30398;SDS011;17195;50.838;7.214;2024-02-28T09:48:23;60.10;;;31.63;;
30398;SDS011;17195;50.838;7.214;2024-02-28T09:50:50;53.80;;;30.10;;
30398;SDS011;17195;50.838;7.214;2024-02-28T09:53:15;59.35;;;30.80;;
30398;SDS011;17195;50.838;7.214;2024-02-28T09:55:41;55.97;;;31.98;;
30398;SDS011;17195;50.838;7.214;2024-02-28T09:58:07;55.72;;;31.17;;
30398;SDS011;17195;50.838;7.214;2024-02-28T10:00:33;56.72;;;30.30;;
30398;SDS011;17195;50.838;7.214;2024-02-28T10:02:59;69.95;;;41.58;;
30398;SDS011;17195;50.838;7.214;2024-02-28T10:05:26;62.53;;;31.85;;
30398;SDS011;17195;50.838;7.214;2024-02-28T10:07:53;56.45;;;31.17;;
30398;SDS011;17195;50.838;7.214;2024-02-28T10:10:19;61.20;;;34.10;;
30398;SDS011;17195;50.838;7.214;2024-02-28T10:12:45;58.70;;;31.17;;
30398;SDS011;17195;50.838;7.214;2024-02-28T10:15:10;55.35;;;30.23;;
30398;SDS011;17195;50.838;7.214;2024-02-28T10:17:36;54.17;;;29.65;;
30398;SDS011;17195;50.838;7.214;2024-02-28T10:20:02;55.30;;;29.70;;
30398;SDS011;17195;50.838;7.214;2024-02-28T10:22:33;61.88;;;31.00;;
30398;SDS011;17195;50.838;7.214;2024-02-28T10:25:00;51.58;;;28.80;;
30398;SDS011;17195;50.838;7.214;2024-02-28T10:27:25;157.70;;;37.22;;
30398;SDS011;17195;50.838;7.214;2024-02-28T10:29:51;56.63;;;30.90;;
30398;SDS011;17195;50.838;7.214;2024-02-28T10:32:17;49.13;;;29.27;;
30398;SDS011;17195;50.838;7.214;2024-02-28T10:34:42;59.40;;;32.13;;
30398;SDS011;17195;50.838;7.214;2024-02-28T10:37:09;53.60;;;28.85;;
30398;SDS011;17195;50.838;7.214;2024-02-28T10:39:35;56.28;;;29.20;;
30398;SDS011;17195;50.838;7.214;2024-02-28T10:42:03;56.30;;;28.45;;
30398;SDS011;17195;50.838;7.214;2024-02-28T10:44:29;52.70;;;29.48;;
30398;SDS011;17195;50.838;7.214;2024-02-28T10:46:56;56.03;;;30.58;;
30398;SDS011;17195;50.838;7.214;2024-02-28T10:49:22;56.28;;;29.10;;
30398;SDS011;17195;50.838;7.214;2024-02-28T10:51:50;54.45;;;29.27;;
30398;SDS011;17195;50.838;7.214;2024-02-28T10:54:20;62.30;;;30.63;;
30398;SDS011;17195;50.838;7.214;2024-02-28T10:56:49;64.70;;;30.20;;
30398;SDS011;17195;50.838;7.214;2024-02-28T10:59:16;60.65;;;30.98;;
30398;SDS011;17195;50.838;7.214;2024-02-28T11:01:43;56.90;;;30.27;;
30398;SDS011;17195;50.838;7.214;2024-02-28T11:04:10;57.83;;;29.90;;
30398;SDS011;17195;50.838;7.214;2024-02-28T11:06:46;52.28;;;28.98;;
30398;SDS011;17195;50.838;7.214;2024-02-28T11:09:19;55.15;;;28.15;;
30398;SDS011;17195;50.838;7.214;2024-02-28T11:11:47;53.60;;;28.83;;
30398;SDS011;17195;50.838;7.214;2024-02-28T11:14:14;57.67;;;30.20;;
30398;SDS011;17195;50.838;7.214;2024-02-28T11:16:40;56.03;;;31.23;;
30398;SDS011;17195;50.838;7.214;2024-02-28T11:19:18;57.40;;;29.80;;
30398;SDS011;17195;50.838;7.214;2024-02-28T11:21:51;59.25;;;30.63;;
30398;SDS011;17195;50.838;7.214;2024-02-28T11:24:22;58.08;;;30.08;;
30398;SDS011;17195;50.838;7.214;2024-02-28T11:26:55;53.42;;;28.45;;
30398;SDS011;17195;50.838;7.214;2024-02-28T11:29:22;63.55;;;32.00;;
30398;SDS011;17195;50.838;7.214;2024-02-28T11:31:52;59.72;;;29.92;;
30398;SDS011;17195;50.838;7.214;2024-02-28T11:34:18;55.88;;;29.63;;
30398;SDS011;17195;50.838;7.214;2024-02-28T11:36:46;57.63;;;30.85;;
30398;SDS011;17195;50.838;7.214;2024-02-28T11:39:16;55.33;;;29.73;;
30398;SDS011;17195;50.838;7.214;2024-02-28T11:41:42;63.88;;;32.10;;
30398;SDS011;17195;50.838;7.214;2024-02-28T11:44:12;50.67;;;29.02;;
30398;SDS011;17195;50.838;7.214;2024-02-28T11:46:45;56.55;;;30.67;;
30398;SDS011;17195;50.838;7.214;2024-02-28T11:49:11;56.00;;;29.83;;
30398;SDS011;17195;50.838;7.214;2024-02-28T11:51:39;58.08;;;30.90;;
30398;SDS011;17195;50.838;7.214;2024-02-28T11:54:08;61.72;;;32.50;;
30398;SDS011;17195;50.838;7.214;2024-02-28T11:56:35;60.53;;;31.42;;
30398;SDS011;17195;50.838;7.214;2024-02-28T11:59:05;57.13;;;31.40;;
30398;SDS011;17195;50.838;7.214;2024-02-28T12:01:34;61.58;;;32.60;;
30398;SDS011;17195;50.838;7.214;2024-02-28T12:04:05;60.40;;;33.10;;
30398;SDS011;17195;50.838;7.214;2024-02-28T12:06:32;57.35;;;31.08;;
30398;SDS011;17195;50.838;7.214;2024-02-28T12:08:59;56.33;;;30.88;;
30398;SDS011;17195;50.838;7.214;2024-02-28T12:11:25;59.85;;;32.33;;
30398;SDS011;17195;50.838;7.214;2024-02-28T12:13:53;57.58;;;32.42;;
30398;SDS011;17195;50.838;7.214;2024-02-28T12:16:22;52.05;;;30.88;;
30398;SDS011;17195;50.838;7.214;2024-02-28T12:18:53;58.97;;;31.08;;
30398;SDS011;17195;50.838;7.214;2024-02-28T12:21:19;58.28;;;31.17;;
30398;SDS011;17195;50.838;7.214;2024-02-28T12:23:46;54.35;;;30.60;;
30398;SDS011;17195;50.838;7.214;2024-02-28T12:26:13;55.83;;;30.85;;
30398;SDS011;17195;50.838;7.214;2024-02-28T12:28:39;52.17;;;29.52;;
30398;SDS011;17195;50.838;7.214;2024-02-28T12:31:05;53.05;;;30.15;;
30398;SDS011;17195;50.838;7.214;2024-02-28T12:33:33;51.90;;;30.17;;
30398;SDS011;17195;50.838;7.214;2024-02-28T12:35:59;55.15;;;29.33;;
30398;SDS011;17195;50.838;7.214;2024-02-28T12:38:28;51.63;;;29.27;;
30398;SDS011;17195;50.838;7.214;2024-02-28T12:40:53;51.35;;;30.30;;
30398;SDS011;17195;50.838;7.214;2024-02-28T12:43:19;48.65;;;27.65;;
30398;SDS011;17195;50.838;7.214;2024-02-28T12:45:45;48.78;;;27.75;;
30398;SDS011;17195;50.838;7.214;2024-02-28T12:48:10;49.08;;;27.60;;
30398;SDS011;17195;50.838;7.214;2024-02-28T12:50:36;45.03;;;25.52;;
30398;SDS011;17195;50.838;7.214;2024-02-28T12:53:02;46.88;;;26.67;;
30398;SDS011;17195;50.838;7.214;2024-02-28T12:55:28;46.78;;;26.35;;
30398;SDS011;17195;50.838;7.214;2024-02-28T12:57:54;46.85;;;27.10;;
30398;SDS011;17195;50.838;7.214;2024-02-28T13:00:20;45.67;;;26.05;;
30398;SDS011;17195;50.838;7.214;2024-02-28T13:02:46;35.72;;;21.40;;
30398;SDS011;17195;50.838;7.214;2024-02-28T13:05:11;30.85;;;18.42;;
30398;SDS011;17195;50.838;7.214;2024-02-28T13:07:40;35.75;;;20.02;;
30398;SDS011;17195;50.838;7.214;2024-02-28T13:10:06;31.23;;;18.63;;
30398;SDS011;17195;50.838;7.214;2024-02-28T13:12:34;34.78;;;20.23;;
30398;SDS011;17195;50.838;7.214;2024-02-28T13:14:59;37.35;;;20.13;;
30398;SDS011;17195;50.838;7.214;2024-02-28T13:17:25;35.58;;;20.35;;
30398;SDS011;17195;50.838;7.214;2024-02-28T13:19:51;35.20;;;20.15;;
30398;SDS011;17195;50.838;7.214;2024-02-28T13:22:16;36.45;;;19.98;;
30398;SDS011;17195;50.838;7.214;2024-02-28T13:24:42;33.30;;;20.58;;
30398;SDS011;17195;50.838;7.214;2024-02-28T13:27:07;34.92;;;21.38;;
30398;SDS011;17195;50.838;7.214;2024-02-28T13:29:34;32.53;;;20.45;;
30398;SDS011;17195;50.838;7.214;2024-02-28T13:32:00;32.55;;;18.48;;
30398;SDS011;17195;50.838;7.214;2024-02-28T13:34:26;30.50;;;18.38;;
30398;SDS011;17195;50.838;7.214;2024-02-28T13:36:52;29.67;;;17.88;;
30398;SDS011;17195;50.838;7.214;2024-02-28T13:39:17;28.85;;;17.48;;
30398;SDS011;17195;50.838;7.214;2024-02-28T13:41:43;24.38;;;15.57;;
30398;SDS011;17195;50.838;7.214;2024-02-28T13:44:09;28.60;;;16.38;;
30398;SDS011;17195;50.838;7.214;2024-02-28T13:46:35;29.20;;;17.35;;
30398;SDS011;17195;50.838;7.214;2024-02-28T13:49:01;28.02;;;17.13;;
30398;SDS011;17195;50.838;7.214;2024-02-28T13:51:26;27.27;;;16.52;;
30398;SDS011;17195;50.838;7.214;2024-02-28T13:53:52;25.40;;;15.38;;
30398;SDS011;17195;50.838;7.214;2024-02-28T13:56:19;29.65;;;17.00;;
30398;SDS011;17195;50.838;7.214;2024-02-28T13:58:45;25.92;;;16.30;;
30398;SDS011;17195;50.838;7.214;2024-02-28T14:01:11;26.08;;;15.95;;
30398;SDS011;17195;50.838;7.214;2024-02-28T14:03:37;30.73;;;18.83;;
30398;SDS011;17195;50.838;7.214;2024-02-28T14:06:03;27.52;;;16.80;;
30398;SDS011;17195;50.838;7.214;2024-02-28T14:08:29;28.40;;;18.00;;
30398;SDS011;17195;50.838;7.214;2024-02-28T14:10:55;26.73;;;16.38;;
30398;SDS011;17195;50.838;7.214;2024-02-28T14:13:20;28.35;;;17.05;;
30398;SDS011;17195;50.838;7.214;2024-02-28T14:15:46;27.58;;;16.80;;